createdAt,value
2018-01-24T00:01:09.297Z,4.20
2018-01-24T00:03:36.818Z,4.53
2018-01-24T00:06:04.422Z,4.00
2018-01-24T00:08:31.993Z,4.20
2018-01-24T00:10:59.652Z,5.00
2018-01-24T00:13:27.158Z,4.70
2018-01-24T00:15:54.669Z,4.87
2018-01-24T00:18:22.237Z,4.80
2018-01-24T00:20:49.741Z,5.27
2018-01-24T00:23:17.304Z,5.43
2018-01-24T00:25:44.794Z,5.43
2018-01-24T00:28:12.305Z,5.47
2018-01-24T00:30:39.934Z,5.53
2018-01-24T00:33:07.431Z,5.20
2018-01-24T00:35:35.362Z,5.50
2018-01-24T00:38:02.880Z,5.30
2018-01-24T00:40:30.484Z,5.43
2018-01-24T00:42:57.967Z,5.70
2018-01-24T00:45:25.516Z,5.87
2018-01-24T00:47:53.062Z,5.40
2018-01-24T00:50:20.566Z,5.70
2018-01-24T00:52:48.081Z,5.67
2018-01-24T00:55:15.590Z,6.00
2018-01-24T00:57:43.090Z,5.63
2018-01-24T01:00:10.616Z,6.00
2018-01-24T01:02:38.155Z,5.90
2018-01-24T01:05:05.758Z,5.80
2018-01-24T01:07:33.264Z,6.03
2018-01-24T01:10:00.821Z,5.83
2018-01-24T01:12:28.373Z,5.93
2018-01-24T01:14:55.896Z,6.73
2018-01-24T01:17:23.492Z,5.63
2018-01-24T01:19:50.992Z,6.13
2018-01-24T01:22:18.503Z,6.77
2018-01-24T01:24:46.010Z,7.17
2018-01-24T01:27:13.508Z,7.60
2018-01-24T01:29:41.009Z,9.03
2018-01-24T01:32:08.523Z,9.60
2018-01-24T01:34:36.079Z,9.33
2018-01-24T01:37:03.579Z,9.67
2018-01-24T01:39:31.153Z,9.23
2018-01-24T01:41:58.653Z,9.47
2018-01-24T01:44:26.159Z,8.67
2018-01-24T01:46:53.671Z,8.90
2018-01-24T01:49:21.175Z,9.10
2018-01-24T01:51:48.741Z,8.43
2018-01-24T01:54:16.259Z,8.50
2018-01-24T01:56:43.749Z,8.77
2018-01-24T01:59:11.259Z,8.33
2018-01-24T02:01:38.816Z,8.27
2018-01-24T02:04:07.042Z,8.20
2018-01-24T02:06:34.590Z,6.80
2018-01-24T02:09:02.126Z,7.70
2018-01-24T02:11:29.743Z,7.23
2018-01-24T02:13:57.253Z,7.20
2018-01-24T02:16:24.875Z,7.53
2018-01-24T02:18:52.467Z,7.10
2018-01-24T02:21:20.015Z,6.93
2018-01-24T02:23:47.556Z,7.17
2018-01-24T02:26:15.094Z,6.70
2018-01-24T02:28:42.680Z,6.47
2018-01-24T02:31:10.263Z,7.33
2018-01-24T02:33:37.777Z,7.07
2018-01-24T02:36:05.423Z,7.30
2018-01-24T02:38:44.654Z,7.10
2018-01-24T02:41:12.168Z,6.93
2018-01-24T02:43:39.697Z,6.13
2018-01-24T02:46:07.228Z,6.83
2018-01-24T02:48:34.749Z,6.00
2018-01-24T02:51:02.251Z,6.40
2018-01-24T02:53:29.813Z,5.57
2018-01-24T02:55:57.379Z,6.10
2018-01-24T02:58:24.890Z,5.50
2018-01-24T03:00:52.408Z,5.17
2018-01-24T03:03:19.938Z,5.27
2018-01-24T03:05:47.444Z,5.23
2018-01-24T03:08:15.005Z,5.43
2018-01-24T03:10:42.505Z,4.60
2018-01-24T03:13:10.018Z,4.50
2018-01-24T03:15:37.511Z,4.60
2018-01-24T03:18:05.068Z,4.33
2018-01-24T03:20:32.577Z,4.37
2018-01-24T03:23:00.073Z,4.07
2018-01-24T03:25:27.612Z,4.00
2018-01-24T03:27:55.090Z,3.60
2018-01-24T03:30:22.644Z,3.90
2018-01-24T03:32:50.221Z,4.10
2018-01-24T03:35:17.714Z,3.73
2018-01-24T03:37:45.255Z,3.90
2018-01-24T03:40:12.772Z,3.90
2018-01-24T03:42:40.319Z,3.77
2018-01-24T03:45:07.834Z,4.07
2018-01-24T03:47:35.335Z,3.63
2018-01-24T03:50:02.837Z,4.00
2018-01-24T03:52:30.380Z,4.63
2018-01-24T03:54:57.887Z,4.57
2018-01-24T03:57:25.420Z,4.93
2018-01-24T03:59:52.945Z,4.87
2018-01-24T04:02:20.444Z,4.83
2018-01-24T04:04:48.004Z,6.00
2018-01-24T04:07:15.544Z,6.30
2018-01-24T04:09:43.082Z,6.37
2018-01-24T04:12:10.579Z,6.57
2018-01-24T04:14:38.580Z,6.60
2018-01-24T04:17:06.186Z,6.07
2018-01-24T04:19:33.699Z,5.87
2018-01-24T04:22:01.195Z,5.73
2018-01-24T04:24:28.716Z,7.23
2018-01-24T04:26:56.202Z,5.77
2018-01-24T04:29:23.729Z,5.67
2018-01-24T04:31:51.214Z,6.03
2018-01-24T04:34:18.805Z,5.53
2018-01-24T04:36:46.320Z,4.80
2018-01-24T04:39:13.932Z,5.07
2018-01-24T04:41:41.428Z,4.50
2018-01-24T04:44:08.932Z,4.20
2018-01-24T04:46:36.426Z,3.90
2018-01-24T04:49:03.939Z,3.93
2018-01-24T04:51:31.478Z,4.03
2018-01-24T04:53:58.982Z,3.73
2018-01-24T04:56:26.664Z,3.10
2018-01-24T04:58:54.173Z,3.87
2018-01-24T05:01:21.683Z,3.70
2018-01-24T05:03:49.178Z,3.90
2018-01-24T05:06:16.653Z,3.57
2018-01-24T05:08:44.161Z,3.83
2018-01-24T05:11:11.694Z,3.10
2018-01-24T05:13:39.218Z,3.50
2018-01-24T05:16:06.759Z,3.53
2018-01-24T05:18:34.361Z,3.50
2018-01-24T05:21:04.363Z,3.80
2018-01-24T05:23:31.874Z,3.70
2018-01-24T05:25:59.456Z,3.63
2018-01-24T05:28:26.990Z,3.40
2018-01-24T05:30:54.502Z,3.83
2018-01-24T05:33:22.064Z,4.30
2018-01-24T05:35:49.654Z,3.93
2018-01-24T05:38:17.210Z,4.57
2018-01-24T05:40:44.751Z,3.80
2018-01-24T05:43:12.255Z,4.60
2018-01-24T05:45:39.798Z,5.13
2018-01-24T05:48:07.358Z,4.23
2018-01-24T05:50:34.892Z,4.40
2018-01-24T05:53:02.468Z,4.47
2018-01-24T05:55:30.004Z,4.03
2018-01-24T05:57:57.511Z,3.87
2018-01-24T06:00:25.027Z,3.80
2018-01-24T06:02:52.539Z,3.50
2018-01-24T06:05:20.524Z,3.73
2018-01-24T06:07:48.868Z,3.73
2018-01-24T06:10:16.649Z,3.37
2018-01-24T06:12:44.380Z,3.17
2018-01-24T06:15:15.902Z,3.77
2018-01-24T06:17:49.902Z,3.53
2018-01-24T06:20:17.433Z,3.93
2018-01-24T06:22:44.995Z,3.77
2018-01-24T06:25:12.566Z,3.83
2018-01-24T06:27:40.088Z,3.60
2018-01-24T06:30:07.597Z,4.10
2018-01-24T06:32:35.114Z,3.40
2018-01-24T06:35:02.621Z,3.53
2018-01-24T06:37:30.151Z,3.50
2018-01-24T06:39:57.682Z,3.63
2018-01-24T06:42:25.243Z,3.23
2018-01-24T06:44:52.783Z,4.20
2018-01-24T06:47:20.345Z,4.00
2018-01-24T06:49:47.864Z,3.90
2018-01-24T06:52:15.389Z,4.27
2018-01-24T06:54:42.929Z,4.60
2018-01-24T06:57:10.490Z,4.20
2018-01-24T06:59:38.043Z,5.73
2018-01-24T07:02:05.600Z,6.03
2018-01-24T07:04:33.105Z,6.80
2018-01-24T07:07:00.648Z,6.70
2018-01-24T07:09:28.177Z,7.10
2018-01-24T07:12:07.441Z,6.03
2018-01-24T07:14:42.473Z,5.30
2018-01-24T07:17:10.039Z,4.30
2018-01-24T07:19:37.572Z,4.00
2018-01-24T07:22:05.752Z,3.33
2018-01-24T07:24:34.121Z,3.17
2018-01-24T07:27:01.612Z,3.37
2018-01-24T07:29:29.207Z,3.27
2018-01-24T07:31:56.694Z,2.97
2018-01-24T07:34:24.181Z,3.53
2018-01-24T07:36:51.695Z,3.00
2018-01-24T07:39:19.187Z,3.27
2018-01-24T07:41:46.714Z,3.40
2018-01-24T07:44:15.823Z,3.10
2018-01-24T07:46:45.087Z,3.20
2018-01-24T07:49:12.650Z,3.60
2018-01-24T07:51:40.236Z,3.40
2018-01-24T07:54:08.530Z,3.20
2018-01-24T07:56:37.052Z,3.83
2018-01-24T07:59:04.618Z,3.70
2018-01-24T08:01:32.147Z,3.20
2018-01-24T08:03:59.648Z,3.00
2018-01-24T08:06:27.161Z,3.87
2018-01-24T08:08:54.700Z,3.50
2018-01-24T08:11:22.949Z,3.73
2018-01-24T08:13:50.469Z,4.10
2018-01-24T08:16:17.991Z,4.00
2018-01-24T08:18:45.531Z,3.90
2018-01-24T08:21:13.058Z,3.70
2018-01-24T08:23:40.607Z,3.43
2018-01-24T08:26:08.113Z,3.17
2018-01-24T08:28:35.654Z,3.33
2018-01-24T08:31:03.134Z,3.00
2018-01-24T08:33:30.685Z,2.60
2018-01-24T08:35:58.199Z,3.33
2018-01-24T08:38:25.771Z,2.73
2018-01-24T08:40:53.274Z,3.30
2018-01-24T08:43:20.774Z,2.63
2018-01-24T08:45:48.278Z,3.30
2018-01-24T08:48:15.770Z,2.90
2018-01-24T08:50:43.293Z,3.20
2018-01-24T08:53:10.794Z,3.37
2018-01-24T08:55:38.998Z,3.07
2018-01-24T08:58:06.501Z,3.00
2018-01-24T09:00:34.049Z,3.30
2018-01-24T09:03:01.602Z,3.53
2018-01-24T09:05:29.159Z,3.83
2018-01-24T09:07:57.511Z,3.90
2018-01-24T09:10:25.027Z,4.27
2018-01-24T09:12:52.566Z,4.80
2018-01-24T09:15:20.127Z,4.37
2018-01-24T09:17:47.663Z,3.53
2018-01-24T09:20:15.196Z,4.30
2018-01-24T09:22:42.732Z,3.73
2018-01-24T09:25:10.368Z,3.70
2018-01-24T09:27:37.861Z,4.70
2018-01-24T09:30:05.408Z,4.77
2018-01-24T09:32:32.941Z,3.63
2018-01-24T09:35:00.442Z,2.90
2018-01-24T09:37:27.988Z,2.83
2018-01-24T09:39:55.604Z,3.03
2018-01-24T09:42:23.264Z,2.83
2018-01-24T09:44:50.786Z,2.60
2018-01-24T09:47:18.295Z,2.40
2018-01-24T09:49:45.817Z,2.60
2018-01-24T09:52:13.358Z,3.10
2018-01-24T09:54:40.969Z,2.80
2018-01-24T09:57:08.480Z,2.53
2018-01-24T09:59:35.986Z,2.80
2018-01-24T10:02:03.504Z,2.57
2018-01-24T10:04:31.190Z,2.37
2018-01-24T10:06:58.676Z,2.70
2018-01-24T10:09:26.338Z,2.27
2018-01-24T10:11:53.882Z,2.40
2018-01-24T10:14:21.373Z,2.30
2018-01-24T10:16:48.920Z,2.00
2018-01-24T10:19:16.482Z,2.57
2018-01-24T10:21:43.957Z,2.10
2018-01-24T10:24:11.458Z,2.60
2018-01-24T10:26:38.984Z,2.27
2018-01-24T10:29:06.589Z,1.97
2018-01-24T10:31:34.098Z,2.00
2018-01-24T10:34:01.638Z,2.03
2018-01-24T10:36:29.168Z,2.20
2018-01-24T10:38:56.662Z,2.00
2018-01-24T10:41:24.217Z,2.10
2018-01-24T10:43:51.742Z,2.13
2018-01-24T10:46:19.295Z,1.80
2018-01-24T10:48:46.795Z,1.80
2018-01-24T10:51:14.319Z,2.10
2018-01-24T10:53:42.036Z,1.80
2018-01-24T10:56:09.544Z,1.67
2018-01-24T10:58:37.142Z,1.90
2018-01-24T11:01:04.690Z,1.80
2018-01-24T11:03:32.217Z,1.40
2018-01-24T11:05:59.777Z,1.80
2018-01-24T11:08:27.277Z,1.20
2018-01-24T11:10:54.784Z,1.87
2018-01-24T11:13:22.336Z,1.70
2018-01-24T11:15:49.867Z,1.47
2018-01-24T11:18:17.416Z,1.50
2018-01-24T11:20:45.051Z,1.33
2018-01-24T11:23:12.555Z,1.40
2018-01-24T11:25:40.122Z,1.50
2018-01-24T11:28:07.617Z,1.53
2018-01-24T11:30:35.176Z,1.50
2018-01-24T11:33:02.729Z,1.53
2018-01-24T11:35:30.289Z,1.27
2018-01-24T11:37:57.816Z,1.63
2018-01-24T11:40:25.352Z,1.50
2018-01-24T11:42:52.914Z,1.90
2018-01-24T11:45:20.409Z,1.63
2018-01-24T11:47:47.931Z,1.67
2018-01-24T11:50:15.620Z,1.63
2018-01-24T11:52:43.158Z,1.50
2018-01-24T11:55:10.814Z,1.83
2018-01-24T11:57:38.341Z,1.80
2018-01-24T12:00:06.001Z,1.90
2018-01-24T12:02:36.463Z,1.50
2018-01-24T12:05:03.947Z,1.80
2018-01-24T12:07:31.474Z,1.73
2018-01-24T12:09:59.043Z,2.00
2018-01-24T12:12:26.659Z,2.40
2018-01-24T12:14:54.284Z,2.10
2018-01-24T12:17:21.783Z,2.30
2018-01-24T12:19:49.328Z,2.00
2018-01-24T12:22:16.867Z,1.80
2018-01-24T12:24:44.359Z,2.30
2018-01-24T12:27:11.904Z,1.97
2018-01-24T12:29:39.426Z,1.93
2018-01-24T12:32:06.962Z,1.87
2018-01-24T12:34:34.586Z,1.63
2018-01-24T12:37:02.102Z,1.83
2018-01-24T12:39:29.617Z,2.30
2018-01-24T12:41:57.125Z,1.50
2018-01-24T12:44:24.644Z,1.40
2018-01-24T12:46:52.152Z,1.47
2018-01-24T12:49:19.688Z,1.10
2018-01-24T12:51:47.214Z,1.30
2018-01-24T12:54:14.748Z,1.10
2018-01-24T12:56:42.450Z,1.50
2018-01-24T12:59:09.993Z,1.30
2018-01-24T13:01:37.543Z,1.27
2018-01-24T13:04:05.058Z,1.20
2018-01-24T13:06:32.696Z,1.20
2018-01-24T13:09:00.216Z,1.13
2018-01-24T13:11:27.814Z,1.20
2018-01-24T13:13:55.358Z,1.23
2018-01-24T13:16:22.976Z,1.03
2018-01-24T13:18:50.528Z,1.20
2018-01-24T13:21:18.174Z,1.27
2018-01-24T13:23:45.753Z,1.20
2018-01-24T13:26:13.335Z,1.33
2018-01-24T13:28:40.972Z,1.33
2018-01-24T13:31:08.582Z,1.27
2018-01-24T13:33:36.474Z,1.57
2018-01-24T13:36:04.096Z,1.20
2018-01-24T13:38:31.702Z,1.40
2018-01-24T13:40:59.224Z,1.17
2018-01-24T13:43:26.789Z,1.50
2018-01-24T13:45:54.303Z,1.30
2018-01-24T13:48:21.797Z,1.10
2018-01-24T13:50:49.333Z,1.20
2018-01-24T13:53:16.847Z,1.30
2018-01-24T13:55:44.458Z,1.37
2018-01-24T13:58:11.930Z,1.40
2018-01-24T14:00:39.469Z,1.40
2018-01-24T14:03:07.037Z,1.50
2018-01-24T14:05:34.575Z,1.30
2018-01-24T14:08:02.161Z,1.37
2018-01-24T14:10:29.724Z,1.40
2018-01-24T14:12:57.348Z,1.60
2018-01-24T14:15:24.925Z,1.30
2018-01-24T14:17:52.496Z,1.47
2018-01-24T14:20:20.041Z,1.40
2018-01-24T14:22:47.632Z,1.33
2018-01-24T14:25:15.184Z,1.30
2018-01-24T14:27:42.757Z,1.20
2018-01-24T14:30:10.278Z,1.30
2018-01-24T14:32:37.913Z,1.10
2018-01-24T14:35:05.442Z,1.40
2018-01-24T14:37:32.957Z,1.07
2018-01-24T14:40:00.484Z,1.10
2018-01-24T14:42:27.990Z,1.10
2018-01-24T14:44:55.525Z,1.10
2018-01-24T14:47:23.013Z,1.33
2018-01-24T14:49:50.495Z,1.50
2018-01-24T14:52:18.034Z,1.23
2018-01-24T14:54:45.541Z,1.30
2018-01-24T14:57:13.038Z,1.40
2018-01-24T14:59:40.578Z,1.30
2018-01-24T15:02:08.118Z,1.30
2018-01-24T15:04:35.667Z,1.60
2018-01-24T15:07:03.221Z,1.33
2018-01-24T15:09:30.733Z,1.20
2018-01-24T15:11:58.279Z,1.40
2018-01-24T15:14:25.789Z,1.13
2018-01-24T15:16:53.299Z,1.20
2018-01-24T15:19:20.834Z,1.20
2018-01-24T15:21:48.397Z,1.10
2018-01-24T15:24:15.940Z,1.17
2018-01-24T15:26:43.457Z,1.47
2018-01-24T15:29:10.957Z,1.20
2018-01-24T15:31:38.482Z,1.20
2018-01-24T15:34:05.961Z,1.07
2018-01-24T15:36:33.489Z,1.30
2018-01-24T15:39:00.973Z,1.30
2018-01-24T15:41:28.465Z,1.30
2018-01-24T15:43:55.989Z,1.30
2018-01-24T15:46:23.618Z,1.00
2018-01-24T15:48:51.146Z,1.23
2018-01-24T15:51:18.669Z,0.90
2018-01-24T15:53:46.216Z,1.00
2018-01-24T15:56:13.719Z,1.10
2018-01-24T15:58:41.224Z,1.10
2018-01-24T16:01:08.742Z,1.20
2018-01-24T16:03:36.286Z,1.30
2018-01-24T16:06:03.842Z,1.10
2018-01-24T16:08:31.372Z,1.20
2018-01-24T16:10:58.887Z,1.00
2018-01-24T16:13:26.407Z,1.40
2018-01-24T16:15:54.131Z,1.20
2018-01-24T16:18:21.617Z,1.30
2018-01-24T16:20:49.104Z,1.30
2018-01-24T16:23:16.609Z,1.50
2018-01-24T16:25:44.108Z,1.30
2018-01-24T16:28:11.602Z,1.30
2018-01-24T16:30:39.233Z,1.20
2018-01-24T16:33:08.055Z,1.10
2018-01-24T16:35:36.536Z,1.20
2018-01-24T16:38:04.999Z,1.20
2018-01-24T16:40:32.667Z,1.30
2018-01-24T16:43:01.711Z,1.20
2018-01-24T16:45:29.211Z,1.10
2018-01-24T16:47:56.760Z,1.30
2018-01-24T16:50:24.283Z,1.40
2018-01-24T16:52:51.894Z,1.43
2018-01-24T16:55:19.422Z,1.50
2018-01-24T16:57:46.963Z,1.60
2018-01-24T17:00:15.049Z,1.90
2018-01-24T17:02:43.142Z,2.10
2018-01-24T17:05:10.662Z,1.73
2018-01-24T17:07:38.181Z,2.07
2018-01-24T17:10:05.708Z,2.20
2018-01-24T17:12:33.225Z,2.13
2018-01-24T17:15:00.830Z,2.10
2018-01-24T17:17:28.337Z,2.23
2018-01-24T17:19:55.833Z,2.87
2018-01-24T17:22:23.374Z,2.93
2018-01-24T17:24:50.900Z,2.93
2018-01-24T17:27:18.394Z,2.50
2018-01-24T17:29:45.889Z,2.60
2018-01-24T17:32:13.394Z,2.00
2018-01-24T17:34:40.926Z,2.30
2018-01-24T17:37:08.492Z,2.00
2018-01-24T17:39:36.044Z,1.83
2018-01-24T17:42:03.631Z,2.17
2018-01-24T17:44:31.182Z,1.80
2018-01-24T17:46:58.730Z,1.60
2018-01-24T17:49:26.617Z,2.00
2018-01-24T17:51:54.099Z,1.70
2018-01-24T17:54:22.057Z,1.63
2018-01-24T17:56:49.614Z,1.80
2018-01-24T17:59:17.297Z,1.40
2018-01-24T18:01:44.846Z,1.70
2018-01-24T18:04:12.329Z,1.30
2018-01-24T18:06:39.874Z,1.20
2018-01-24T18:09:07.398Z,1.50
2018-01-24T18:11:34.960Z,1.30
2018-01-24T18:14:03.339Z,1.40
2018-01-24T18:16:30.870Z,1.10
2018-01-24T18:18:58.440Z,1.20
2018-01-24T18:21:26.013Z,1.50
2018-01-24T18:23:53.574Z,1.40
2018-01-24T18:26:21.077Z,1.30
2018-01-24T18:28:49.069Z,1.60
2018-01-24T18:31:16.663Z,1.60
2018-01-24T18:33:44.165Z,1.33
2018-01-24T18:36:13.573Z,1.30
2018-01-24T18:38:41.251Z,1.57
2018-01-24T18:41:08.804Z,1.60
2018-01-24T18:43:36.319Z,1.60
2018-01-24T18:46:03.833Z,1.93
2018-01-24T18:48:31.417Z,1.67
2018-01-24T18:50:58.912Z,1.47
2018-01-24T18:53:26.411Z,2.10
2018-01-24T18:55:53.923Z,1.70
2018-01-24T18:58:21.493Z,1.50
2018-01-24T19:00:48.973Z,1.70
2018-01-24T19:03:16.475Z,1.60
2018-01-24T19:05:43.977Z,1.67
2018-01-24T19:08:11.445Z,1.47
2018-01-24T19:10:39.875Z,1.60
2018-01-24T19:13:07.368Z,1.60
2018-01-24T19:15:34.937Z,1.80
2018-01-24T19:18:03.351Z,1.87
2018-01-24T19:20:30.936Z,1.70
2018-01-24T19:22:58.485Z,1.70
2018-01-24T19:25:26.082Z,1.50
2018-01-24T19:27:53.714Z,1.60
2018-01-24T19:30:21.221Z,1.77
2018-01-24T19:32:48.709Z,1.50
2018-01-24T19:35:16.333Z,1.70
2018-01-24T19:37:44.305Z,1.80
2018-01-24T19:40:11.860Z,1.80
2018-01-24T19:42:39.444Z,1.70
2018-01-24T19:45:06.969Z,1.80
2018-01-24T19:47:34.482Z,2.20
2018-01-24T19:50:02.060Z,1.90
2018-01-24T19:52:29.620Z,1.73
2018-01-24T19:54:57.181Z,1.50
2018-01-24T19:57:24.754Z,1.60
2018-01-24T19:59:52.337Z,1.70
2018-01-24T20:02:19.838Z,1.53
2018-01-24T20:04:47.343Z,1.47
2018-01-24T20:07:14.856Z,2.03
2018-01-24T20:09:42.425Z,1.80
2018-01-24T20:12:09.908Z,1.70
2018-01-24T20:14:37.767Z,1.60
2018-01-24T20:17:05.273Z,2.17
2018-01-24T20:19:32.820Z,2.00
2018-01-24T20:22:00.369Z,1.50
2018-01-24T20:24:27.921Z,1.60
2018-01-24T20:26:55.457Z,1.60
2018-01-24T20:29:23.108Z,2.03
2018-01-24T20:31:50.694Z,1.90
2018-01-24T20:34:18.196Z,2.10
2018-01-24T20:36:45.737Z,2.00
2018-01-24T20:39:13.331Z,1.70
2018-01-24T20:41:40.848Z,1.80
2018-01-24T20:44:08.364Z,1.67
2018-01-24T20:46:36.084Z,2.03
2018-01-24T20:49:03.609Z,1.73
2018-01-24T20:51:31.124Z,2.10
2018-01-24T20:53:58.621Z,1.77
2018-01-24T20:56:26.251Z,1.90
2018-01-24T20:58:53.773Z,1.77
2018-01-24T21:01:21.320Z,1.50
2018-01-24T21:03:49.636Z,1.80
2018-01-24T21:06:17.717Z,2.10
2018-01-24T21:08:45.238Z,1.80
2018-01-24T21:11:12.748Z,1.80
2018-01-24T21:13:40.341Z,2.37
2018-01-24T21:16:08.145Z,1.63
2018-01-24T21:18:35.949Z,1.70
2018-01-24T21:21:03.551Z,1.80
2018-01-24T21:23:31.162Z,1.97
2018-01-24T21:25:59.166Z,1.70
2018-01-24T21:28:38.258Z,1.70
2018-01-24T21:31:17.620Z,2.30
2018-01-24T21:34:03.477Z,2.00
2018-01-24T21:36:33.950Z,1.70
2018-01-24T21:39:01.521Z,1.73
2018-01-24T21:41:29.038Z,2.10
2018-01-24T21:43:56.628Z,1.70
2018-01-24T21:46:24.146Z,2.53
2018-01-24T21:48:51.697Z,1.80
2018-01-24T21:51:19.235Z,2.30
2018-01-24T21:53:46.856Z,2.07
2018-01-24T21:56:14.423Z,2.20
2018-01-24T21:58:41.986Z,2.10
2018-01-24T22:01:09.511Z,2.37
2018-01-24T22:03:37.081Z,2.40
2018-01-24T22:06:04.610Z,2.47
2018-01-24T22:08:32.183Z,1.97
2018-01-24T22:10:59.696Z,2.27
2018-01-24T22:13:27.218Z,2.10
2018-01-24T22:15:54.749Z,1.93
2018-01-24T22:18:23.088Z,2.10
2018-01-24T22:20:50.647Z,2.10
2018-01-24T22:23:18.159Z,2.20
2018-01-24T22:25:45.699Z,2.03
2018-01-24T22:28:13.179Z,2.10
2018-01-24T22:30:40.715Z,2.23
2018-01-24T22:33:08.239Z,2.10
2018-01-24T22:35:35.730Z,1.87
2018-01-24T22:38:03.279Z,2.17
2018-01-24T22:40:30.781Z,2.03
2018-01-24T22:42:58.327Z,2.17
2018-01-24T22:45:25.883Z,2.00
2018-01-24T22:47:53.428Z,2.00
2018-01-24T22:50:20.982Z,2.60
2018-01-24T22:52:48.477Z,2.20
2018-01-24T22:55:16.862Z,2.53
2018-01-24T22:57:44.362Z,2.40
2018-01-24T23:00:11.855Z,2.17
2018-01-24T23:02:39.377Z,2.27
2018-01-24T23:05:06.865Z,1.90
2018-01-24T23:07:34.383Z,1.80
2018-01-24T23:10:01.850Z,1.87
2018-01-24T23:12:29.424Z,1.60
2018-01-24T23:14:56.972Z,1.80
2018-01-24T23:17:24.491Z,1.60
2018-01-24T23:19:53.116Z,1.70
2018-01-24T23:22:20.683Z,1.70
2018-01-24T23:24:48.172Z,1.47
2018-01-24T23:27:15.692Z,1.87
2018-01-24T23:29:43.184Z,1.63
2018-01-24T23:32:10.716Z,1.90
2018-01-24T23:34:38.236Z,1.60
2018-01-24T23:37:05.766Z,1.37
2018-01-24T23:39:33.287Z,1.63
2018-01-24T23:42:00.854Z,2.07
2018-01-24T23:44:28.352Z,2.00
2018-01-24T23:46:55.881Z,1.90
2018-01-24T23:49:23.467Z,1.70
2018-01-24T23:51:51.012Z,1.67
2018-01-24T23:54:18.552Z,1.60
2018-01-24T23:56:46.098Z,1.60
2018-01-24T23:59:13.607Z,1.70
